Washington, District of Columbia
Traffic Map
Current Weather Conditions
Washington, District of Columbia
Clear
Clear
23°
Feels Like: 23°
Wind Chill: 23° Ceiling: Unl
Heat Index: 23° Visibility: 10mi
Dew Point: Wind: 10mph
Humidity: 29% Direction: 220° (SW)
Pressure: 29.78in Gusts: 0mph
Raw Report DataKDCA 252052Z 22009KT 10SM CLR 23/04 A2978 RMK AO2 SLP085 T02280039 56026
Traffic Incident Summary
Active as of:
Severity:
Category:
InformationThere was an issue retrieving the traffic information for this location. Please try a different location or try again shortly.
Advertisements
Track Severe Weather on mobile